sensor_id;sensor_type;location;lat;lon;timestamp;temperature;humidity
21149;DHT22;10732;51.472;6.466;2023-11-19T00:01:39;11.50;99.90
21149;DHT22;10732;51.472;6.466;2023-11-19T00:04:04;11.60;99.90
21149;DHT22;10732;51.472;6.466;2023-11-19T00:06:30;11.60;99.90
21149;DHT22;10732;51.472;6.466;2023-11-19T00:08:56;11.70;99.90
21149;DHT22;10732;51.472;6.466;2023-11-19T00:11:21;11.60;99.90
21149;DHT22;10732;51.472;6.466;2023-11-19T00:13:47;11.70;99.90
21149;DHT22;10732;51.472;6.466;2023-11-19T00:16:12;11.70;99.90
21149;DHT22;10732;51.472;6.466;2023-11-19T00:18:38;11.70;99.90
21149;DHT22;10732;51.472;6.466;2023-11-19T00:21:03;11.70;99.90
21149;DHT22;10732;51.472;6.466;2023-11-19T00:23:29;11.70;99.90
21149;DHT22;10732;51.472;6.466;2023-11-19T00:25:55;11.70;99.90
21149;DHT22;10732;51.472;6.466;2023-11-19T00:28:20;11.70;99.90
21149;DHT22;10732;51.472;6.466;2023-11-19T00:30:46;11.80;99.90
21149;DHT22;10732;51.472;6.466;2023-11-19T00:33:11;11.80;99.90
21149;DHT22;10732;51.472;6.466;2023-11-19T00:35:37;11.80;99.90
21149;DHT22;10732;51.472;6.466;2023-11-19T00:38:02;11.70;99.90
21149;DHT22;10732;51.472;6.466;2023-11-19T00:40:29;11.70;99.90
21149;DHT22;10732;51.472;6.466;2023-11-19T00:42:54;11.70;99.90
21149;DHT22;10732;51.472;6.466;2023-11-19T00:45:20;11.70;99.90
21149;DHT22;10732;51.472;6.466;2023-11-19T00:47:46;11.70;99.90
21149;DHT22;10732;51.472;6.466;2023-11-19T00:50:11;11.70;99.90
21149;DHT22;10732;51.472;6.466;2023-11-19T00:52:38;11.80;99.90
21149;DHT22;10732;51.472;6.466;2023-11-19T00:55:04;11.80;99.90
21149;DHT22;10732;51.472;6.466;2023-11-19T00:57:33;11.70;99.90
21149;DHT22;10732;51.472;6.466;2023-11-19T00:59:59;11.80;99.90
21149;DHT22;10732;51.472;6.466;2023-11-19T01:02:25;11.80;99.90
21149;DHT22;10732;51.472;6.466;2023-11-19T01:04:51;11.80;99.90
21149;DHT22;10732;51.472;6.466;2023-11-19T01:07:17;11.80;99.90
21149;DHT22;10732;51.472;6.466;2023-11-19T01:09:43;11.90;99.90
21149;DHT22;10732;51.472;6.466;2023-11-19T01:12:09;11.80;99.90
21149;DHT22;10732;51.472;6.466;2023-11-19T01:14:35;11.80;99.90
21149;DHT22;10732;51.472;6.466;2023-11-19T01:17:01;11.80;99.90
21149;DHT22;10732;51.472;6.466;2023-11-19T01:19:27;11.80;99.90
21149;DHT22;10732;51.472;6.466;2023-11-19T01:21:54;11.90;99.90
21149;DHT22;10732;51.472;6.466;2023-11-19T01:24:20;11.90;99.90
21149;DHT22;10732;51.472;6.466;2023-11-19T01:26:46;11.90;99.90
21149;DHT22;10732;51.472;6.466;2023-11-19T01:29:14;12.00;99.90
21149;DHT22;10732;51.472;6.466;2023-11-19T01:31:45;11.80;99.90
21149;DHT22;10732;51.472;6.466;2023-11-19T01:34:10;11.90;99.90
21149;DHT22;10732;51.472;6.466;2023-11-19T01:36:36;11.90;99.90
21149;DHT22;10732;51.472;6.466;2023-11-19T01:39:02;11.90;99.90
21149;DHT22;10732;51.472;6.466;2023-11-19T01:41:33;11.90;99.90
21149;DHT22;10732;51.472;6.466;2023-11-19T01:43:59;11.90;99.90
21149;DHT22;10732;51.472;6.466;2023-11-19T01:46:25;11.90;99.90
21149;DHT22;10732;51.472;6.466;2023-11-19T01:48:51;11.90;99.90
21149;DHT22;10732;51.472;6.466;2023-11-19T01:51:17;11.90;99.90
21149;DHT22;10732;51.472;6.466;2023-11-19T01:53:43;11.90;99.90
21149;DHT22;10732;51.472;6.466;2023-11-19T01:56:12;11.90;99.90
21149;DHT22;10732;51.472;6.466;2023-11-19T01:58:39;12.00;99.90
21149;DHT22;10732;51.472;6.466;2023-11-19T02:01:06;12.00;99.90
21149;DHT22;10732;51.472;6.466;2023-11-19T02:03:32;12.00;99.90
21149;DHT22;10732;51.472;6.466;2023-11-19T02:06:02;12.00;99.90
21149;DHT22;10732;51.472;6.466;2023-11-19T02:08:29;12.00;99.90
21149;DHT22;10732;51.472;6.466;2023-11-19T02:10:55;12.00;99.90
21149;DHT22;10732;51.472;6.466;2023-11-19T02:13:26;12.00;99.90
21149;DHT22;10732;51.472;6.466;2023-11-19T02:15:52;12.00;99.90
21149;DHT22;10732;51.472;6.466;2023-11-19T02:18:27;11.90;99.90
21149;DHT22;10732;51.472;6.466;2023-11-19T02:20:57;11.90;99.90
21149;DHT22;10732;51.472;6.466;2023-11-19T02:23:23;11.90;99.90
21149;DHT22;10732;51.472;6.466;2023-11-19T02:28:39;11.90;99.90
21149;DHT22;10732;51.472;6.466;2023-11-19T02:31:05;11.90;99.90
21149;DHT22;10732;51.472;6.466;2023-11-19T02:33:35;11.90;99.90
21149;DHT22;10732;51.472;6.466;2023-11-19T02:36:00;11.90;99.90
21149;DHT22;10732;51.472;6.466;2023-11-19T02:38:29;11.90;99.90
21149;DHT22;10732;51.472;6.466;2023-11-19T02:40:56;12.00;99.90
21149;DHT22;10732;51.472;6.466;2023-11-19T02:43:22;12.00;99.90
21149;DHT22;10732;51.472;6.466;2023-11-19T02:45:48;12.00;99.90
21149;DHT22;10732;51.472;6.466;2023-11-19T02:48:14;12.00;99.90
21149;DHT22;10732;51.472;6.466;2023-11-19T02:50:44;12.00;99.90
21149;DHT22;10732;51.472;6.466;2023-11-19T02:53:09;12.00;99.90
21149;DHT22;10732;51.472;6.466;2023-11-19T02:55:36;12.00;99.90
21149;DHT22;10732;51.472;6.466;2023-11-19T02:58:04;12.00;99.90
21149;DHT22;10732;51.472;6.466;2023-11-19T03:00:39;12.00;99.90
21149;DHT22;10732;51.472;6.466;2023-11-19T03:03:13;12.10;99.90
21149;DHT22;10732;51.472;6.466;2023-11-19T03:05:48;12.10;99.90
21149;DHT22;10732;51.472;6.466;2023-11-19T03:08:17;12.10;99.90
21149;DHT22;10732;51.472;6.466;2023-11-19T03:10:43;12.00;99.90
21149;DHT22;10732;51.472;6.466;2023-11-19T03:13:12;11.90;99.90
21149;DHT22;10732;51.472;6.466;2023-11-19T03:15:42;11.80;99.90
21149;DHT22;10732;51.472;6.466;2023-11-19T03:18:08;11.80;99.90
21149;DHT22;10732;51.472;6.466;2023-11-19T03:20:33;11.70;99.90
21149;DHT22;10732;51.472;6.466;2023-11-19T03:22:59;11.70;99.90
21149;DHT22;10732;51.472;6.466;2023-11-19T03:25:27;11.60;99.90
21149;DHT22;10732;51.472;6.466;2023-11-19T03:27:58;11.50;99.90
21149;DHT22;10732;51.472;6.466;2023-11-19T03:30:23;11.50;99.90
21149;DHT22;10732;51.472;6.466;2023-11-19T03:32:50;11.40;99.90
21149;DHT22;10732;51.472;6.466;2023-11-19T03:35:15;11.40;99.90
21149;DHT22;10732;51.472;6.466;2023-11-19T03:37:41;11.40;99.90
21149;DHT22;10732;51.472;6.466;2023-11-19T03:40:07;11.40;99.90
21149;DHT22;10732;51.472;6.466;2023-11-19T03:42:32;11.30;99.90
21149;DHT22;10732;51.472;6.466;2023-11-19T03:44:58;11.40;99.90
21149;DHT22;10732;51.472;6.466;2023-11-19T03:47:24;11.30;99.90
21149;DHT22;10732;51.472;6.466;2023-11-19T03:49:51;11.30;99.90
21149;DHT22;10732;51.472;6.466;2023-11-19T03:52:17;11.30;99.90
21149;DHT22;10732;51.472;6.466;2023-11-19T03:54:43;11.30;99.90
21149;DHT22;10732;51.472;6.466;2023-11-19T03:57:08;11.20;99.90
21149;DHT22;10732;51.472;6.466;2023-11-19T03:59:35;11.30;99.90
21149;DHT22;10732;51.472;6.466;2023-11-19T04:02:02;11.20;99.90
21149;DHT22;10732;51.472;6.466;2023-11-19T04:04:28;11.10;99.90
21149;DHT22;10732;51.472;6.466;2023-11-19T04:06:55;11.10;99.90
21149;DHT22;10732;51.472;6.466;2023-11-19T04:09:20;11.00;99.90
21149;DHT22;10732;51.472;6.466;2023-11-19T04:11:46;11.10;99.90
21149;DHT22;10732;51.472;6.466;2023-11-19T04:14:13;11.00;99.90
21149;DHT22;10732;51.472;6.466;2023-11-19T04:16:39;11.00;99.90
21149;DHT22;10732;51.472;6.466;2023-11-19T04:19:04;11.00;99.90
21149;DHT22;10732;51.472;6.466;2023-11-19T04:21:30;11.10;99.90
21149;DHT22;10732;51.472;6.466;2023-11-19T04:23:56;11.00;99.90
21149;DHT22;10732;51.472;6.466;2023-11-19T04:26:21;11.00;99.90
21149;DHT22;10732;51.472;6.466;2023-11-19T04:28:47;11.00;99.90
21149;DHT22;10732;51.472;6.466;2023-11-19T04:31:15;11.20;99.90
21149;DHT22;10732;51.472;6.466;2023-11-19T04:33:41;11.30;99.90
21149;DHT22;10732;51.472;6.466;2023-11-19T04:36:07;11.30;99.90
21149;DHT22;10732;51.472;6.466;2023-11-19T04:38:33;11.20;99.90
21149;DHT22;10732;51.472;6.466;2023-11-19T04:40:58;11.20;99.90
21149;DHT22;10732;51.472;6.466;2023-11-19T04:43:24;11.30;99.90
21149;DHT22;10732;51.472;6.466;2023-11-19T04:45:50;11.30;99.90
21149;DHT22;10732;51.472;6.466;2023-11-19T04:48:15;11.30;99.90
21149;DHT22;10732;51.472;6.466;2023-11-19T04:50:41;11.30;99.90
21149;DHT22;10732;51.472;6.466;2023-11-19T04:53:06;11.40;99.90
21149;DHT22;10732;51.472;6.466;2023-11-19T04:55:32;11.40;99.90
21149;DHT22;10732;51.472;6.466;2023-11-19T04:57:57;11.40;99.90
21149;DHT22;10732;51.472;6.466;2023-11-19T05:00:23;11.40;99.90
21149;DHT22;10732;51.472;6.466;2023-11-19T05:02:48;11.30;99.90
21149;DHT22;10732;51.472;6.466;2023-11-19T05:05:15;11.40;99.90
21149;DHT22;10732;51.472;6.466;2023-11-19T05:07:41;11.40;99.90
21149;DHT22;10732;51.472;6.466;2023-11-19T05:10:07;11.40;99.90
21149;DHT22;10732;51.472;6.466;2023-11-19T05:12:33;11.40;99.90
21149;DHT22;10732;51.472;6.466;2023-11-19T05:14:59;11.30;99.90
21149;DHT22;10732;51.472;6.466;2023-11-19T05:17:25;11.30;99.90
21149;DHT22;10732;51.472;6.466;2023-11-19T05:19:51;11.30;99.90
21149;DHT22;10732;51.472;6.466;2023-11-19T05:22:17;11.30;99.90
21149;DHT22;10732;51.472;6.466;2023-11-19T05:24:42;11.40;99.90
21149;DHT22;10732;51.472;6.466;2023-11-19T05:27:08;11.40;99.90
21149;DHT22;10732;51.472;6.466;2023-11-19T05:29:34;11.40;99.90
21149;DHT22;10732;51.472;6.466;2023-11-19T05:31:59;11.30;99.90
21149;DHT22;10732;51.472;6.466;2023-11-19T05:34:25;11.20;99.90
21149;DHT22;10732;51.472;6.466;2023-11-19T05:36:51;11.10;99.90
21149;DHT22;10732;51.472;6.466;2023-11-19T05:39:17;11.00;99.90
21149;DHT22;10732;51.472;6.466;2023-11-19T05:41:44;11.00;99.90
21149;DHT22;10732;51.472;6.466;2023-11-19T05:44:09;10.90;99.90
21149;DHT22;10732;51.472;6.466;2023-11-19T05:46:35;10.90;99.90
21149;DHT22;10732;51.472;6.466;2023-11-19T05:49:05;10.90;99.90
21149;DHT22;10732;51.472;6.466;2023-11-19T05:51:31;10.90;99.90
21149;DHT22;10732;51.472;6.466;2023-11-19T05:53:56;10.90;99.90
21149;DHT22;10732;51.472;6.466;2023-11-19T05:56:23;11.00;99.90
21149;DHT22;10732;51.472;6.466;2023-11-19T05:58:48;11.00;99.90
21149;DHT22;10732;51.472;6.466;2023-11-19T06:01:17;11.00;99.90
21149;DHT22;10732;51.472;6.466;2023-11-19T06:03:42;11.00;99.90
21149;DHT22;10732;51.472;6.466;2023-11-19T06:06:08;11.00;99.90
21149;DHT22;10732;51.472;6.466;2023-11-19T06:08:34;10.90;99.90
21149;DHT22;10732;51.472;6.466;2023-11-19T06:11:00;10.90;99.90
21149;DHT22;10732;51.472;6.466;2023-11-19T06:13:26;10.80;99.90
21149;DHT22;10732;51.472;6.466;2023-11-19T06:15:52;10.80;99.90
21149;DHT22;10732;51.472;6.466;2023-11-19T06:18:18;10.80;99.90
21149;DHT22;10732;51.472;6.466;2023-11-19T06:20:45;10.70;99.90
21149;DHT22;10732;51.472;6.466;2023-11-19T06:23:10;10.70;99.90
21149;DHT22;10732;51.472;6.466;2023-11-19T06:25:36;10.80;99.90
21149;DHT22;10732;51.472;6.466;2023-11-19T06:28:01;10.80;99.90
21149;DHT22;10732;51.472;6.466;2023-11-19T06:30:27;10.80;99.90
21149;DHT22;10732;51.472;6.466;2023-11-19T06:32:54;10.90;99.90
21149;DHT22;10732;51.472;6.466;2023-11-19T06:35:19;10.90;99.90
21149;DHT22;10732;51.472;6.466;2023-11-19T06:37:45;10.70;99.90
21149;DHT22;10732;51.472;6.466;2023-11-19T06:40:10;10.70;99.90
21149;DHT22;10732;51.472;6.466;2023-11-19T06:42:37;10.70;99.90
21149;DHT22;10732;51.472;6.466;2023-11-19T06:45:04;10.70;99.90
21149;DHT22;10732;51.472;6.466;2023-11-19T06:47:29;10.70;99.90
21149;DHT22;10732;51.472;6.466;2023-11-19T06:49:55;10.70;99.90
21149;DHT22;10732;51.472;6.466;2023-11-19T06:52:21;10.60;99.90
21149;DHT22;10732;51.472;6.466;2023-11-19T06:54:47;10.60;99.90
21149;DHT22;10732;51.472;6.466;2023-11-19T06:57:13;10.60;99.90
21149;DHT22;10732;51.472;6.466;2023-11-19T06:59:38;10.70;99.90
21149;DHT22;10732;51.472;6.466;2023-11-19T07:02:05;10.60;99.90
21149;DHT22;10732;51.472;6.466;2023-11-19T07:04:31;10.50;99.90
21149;DHT22;10732;51.472;6.466;2023-11-19T07:06:57;10.50;99.90
21149;DHT22;10732;51.472;6.466;2023-11-19T07:09:22;10.50;99.90
21149;DHT22;10732;51.472;6.466;2023-11-19T07:11:49;10.50;99.90
21149;DHT22;10732;51.472;6.466;2023-11-19T07:14:16;10.50;99.90
21149;DHT22;10732;51.472;6.466;2023-11-19T07:16:42;10.50;99.90
21149;DHT22;10732;51.472;6.466;2023-11-19T07:19:08;10.40;99.90
21149;DHT22;10732;51.472;6.466;2023-11-19T07:21:33;10.40;99.90
21149;DHT22;10732;51.472;6.466;2023-11-19T07:23:59;10.40;99.90
21149;DHT22;10732;51.472;6.466;2023-11-19T07:26:25;10.50;99.90
21149;DHT22;10732;51.472;6.466;2023-11-19T07:28:51;10.50;99.90
21149;DHT22;10732;51.472;6.466;2023-11-19T07:31:17;10.50;99.90
21149;DHT22;10732;51.472;6.466;2023-11-19T07:33:45;10.60;99.90
21149;DHT22;10732;51.472;6.466;2023-11-19T07:36:12;10.60;99.90
21149;DHT22;10732;51.472;6.466;2023-11-19T07:38:37;10.50;99.90
21149;DHT22;10732;51.472;6.466;2023-11-19T07:41:04;10.60;99.90
21149;DHT22;10732;51.472;6.466;2023-11-19T07:43:30;10.70;99.90
21149;DHT22;10732;51.472;6.466;2023-11-19T07:45:56;10.70;99.90
21149;DHT22;10732;51.472;6.466;2023-11-19T07:48:24;10.70;99.90
21149;DHT22;10732;51.472;6.466;2023-11-19T07:50:50;10.80;99.90
21149;DHT22;10732;51.472;6.466;2023-11-19T07:53:16;10.90;99.90
21149;DHT22;10732;51.472;6.466;2023-11-19T07:55:42;11.10;99.90
21149;DHT22;10732;51.472;6.466;2023-11-19T07:58:10;11.40;99.90
21149;DHT22;10732;51.472;6.466;2023-11-19T08:00:36;11.70;99.90
21149;DHT22;10732;51.472;6.466;2023-11-19T08:03:01;12.10;99.90
21149;DHT22;10732;51.472;6.466;2023-11-19T08:05:27;12.40;99.90
21149;DHT22;10732;51.472;6.466;2023-11-19T08:07:52;12.50;99.90
21149;DHT22;10732;51.472;6.466;2023-11-19T08:10:19;12.50;99.90
21149;DHT22;10732;51.472;6.466;2023-11-19T08:12:44;12.50;99.90
21149;DHT22;10732;51.472;6.466;2023-11-19T08:15:10;12.60;99.90
21149;DHT22;10732;51.472;6.466;2023-11-19T08:17:36;12.40;99.90
21149;DHT22;10732;51.472;6.466;2023-11-19T08:20:02;12.20;99.90
21149;DHT22;10732;51.472;6.466;2023-11-19T08:22:28;12.10;99.90
21149;DHT22;10732;51.472;6.466;2023-11-19T08:24:53;12.10;99.90
21149;DHT22;10732;51.472;6.466;2023-11-19T08:27:19;12.00;99.90
21149;DHT22;10732;51.472;6.466;2023-11-19T08:29:54;12.00;99.90
21149;DHT22;10732;51.472;6.466;2023-11-19T08:32:26;12.50;99.90
21149;DHT22;10732;51.472;6.466;2023-11-19T08:34:53;13.30;99.90
21149;DHT22;10732;51.472;6.466;2023-11-19T08:37:18;13.50;99.90
21149;DHT22;10732;51.472;6.466;2023-11-19T08:39:50;13.90;99.90
21149;DHT22;10732;51.472;6.466;2023-11-19T08:42:17;13.80;99.90
21149;DHT22;10732;51.472;6.466;2023-11-19T08:44:43;13.80;99.90
21149;DHT22;10732;51.472;6.466;2023-11-19T08:47:12;14.20;99.90
21149;DHT22;10732;51.472;6.466;2023-11-19T08:49:41;14.30;99.90
21149;DHT22;10732;51.472;6.466;2023-11-19T08:52:07;14.50;99.90
21149;DHT22;10732;51.472;6.466;2023-11-19T08:54:42;14.50;99.90
21149;DHT22;10732;51.472;6.466;2023-11-19T08:57:07;14.40;99.90
21149;DHT22;10732;51.472;6.466;2023-11-19T08:59:34;14.40;99.90
21149;DHT22;10732;51.472;6.466;2023-11-19T09:01:59;14.70;99.90
21149;DHT22;10732;51.472;6.466;2023-11-19T09:04:25;15.00;99.90
21149;DHT22;10732;51.472;6.466;2023-11-19T09:06:50;15.30;99.90
21149;DHT22;10732;51.472;6.466;2023-11-19T09:09:16;15.10;99.90
21149;DHT22;10732;51.472;6.466;2023-11-19T09:11:42;15.00;99.90
21149;DHT22;10732;51.472;6.466;2023-11-19T09:14:08;15.00;99.90
21149;DHT22;10732;51.472;6.466;2023-11-19T09:16:33;14.80;99.90
21149;DHT22;10732;51.472;6.466;2023-11-19T09:18:59;14.60;99.90
21149;DHT22;10732;51.472;6.466;2023-11-19T09:21:26;15.00;99.90
21149;DHT22;10732;51.472;6.466;2023-11-19T09:23:51;15.20;99.90
21149;DHT22;10732;51.472;6.466;2023-11-19T09:26:19;15.60;99.90
21149;DHT22;10732;51.472;6.466;2023-11-19T09:28:44;15.60;99.90
21149;DHT22;10732;51.472;6.466;2023-11-19T09:31:17;15.50;99.90
21149;DHT22;10732;51.472;6.466;2023-11-19T09:33:43;15.30;99.90
21149;DHT22;10732;51.472;6.466;2023-11-19T09:36:11;15.50;99.90
21149;DHT22;10732;51.472;6.466;2023-11-19T09:38:39;15.80;99.90
21149;DHT22;10732;51.472;6.466;2023-11-19T09:41:05;15.30;99.90
21149;DHT22;10732;51.472;6.466;2023-11-19T09:43:35;15.20;99.90
21149;DHT22;10732;51.472;6.466;2023-11-19T09:46:05;14.90;99.90
21149;DHT22;10732;51.472;6.466;2023-11-19T09:48:35;15.00;99.90
21149;DHT22;10732;51.472;6.466;2023-11-19T09:51:01;14.60;99.90
21149;DHT22;10732;51.472;6.466;2023-11-19T09:53:27;14.20;99.90
21149;DHT22;10732;51.472;6.466;2023-11-19T09:55:53;14.10;99.90
21149;DHT22;10732;51.472;6.466;2023-11-19T09:58:20;13.90;99.90
21149;DHT22;10732;51.472;6.466;2023-11-19T10:00:47;13.90;99.90
21149;DHT22;10732;51.472;6.466;2023-11-19T10:03:12;13.80;99.90
21149;DHT22;10732;51.472;6.466;2023-11-19T10:05:38;13.70;99.90
21149;DHT22;10732;51.472;6.466;2023-11-19T10:08:05;13.60;99.90
21149;DHT22;10732;51.472;6.466;2023-11-19T10:10:30;13.50;99.90
21149;DHT22;10732;51.472;6.466;2023-11-19T10:12:56;13.40;99.90
21149;DHT22;10732;51.472;6.466;2023-11-19T10:15:22;13.40;99.90
21149;DHT22;10732;51.472;6.466;2023-11-19T10:17:49;13.50;99.90
21149;DHT22;10732;51.472;6.466;2023-11-19T10:20:15;13.80;99.90
21149;DHT22;10732;51.472;6.466;2023-11-19T10:22:41;13.80;99.90
21149;DHT22;10732;51.472;6.466;2023-11-19T10:25:22;14.10;99.90
21149;DHT22;10732;51.472;6.466;2023-11-19T10:27:49;14.20;99.90
21149;DHT22;10732;51.472;6.466;2023-11-19T10:30:21;14.20;99.90
21149;DHT22;10732;51.472;6.466;2023-11-19T10:33:03;14.30;99.90
21149;DHT22;10732;51.472;6.466;2023-11-19T10:35:29;14.50;99.90
21149;DHT22;10732;51.472;6.466;2023-11-19T10:37:54;14.70;99.90
21149;DHT22;10732;51.472;6.466;2023-11-19T10:40:20;14.90;99.90
21149;DHT22;10732;51.472;6.466;2023-11-19T10:42:46;14.90;99.90
21149;DHT22;10732;51.472;6.466;2023-11-19T10:45:23;15.20;99.90
21149;DHT22;10732;51.472;6.466;2023-11-19T10:47:51;15.00;99.90
21149;DHT22;10732;51.472;6.466;2023-11-19T10:50:17;15.00;99.90
21149;DHT22;10732;51.472;6.466;2023-11-19T10:52:44;14.70;99.90
21149;DHT22;10732;51.472;6.466;2023-11-19T10:55:11;14.50;99.90
21149;DHT22;10732;51.472;6.466;2023-11-19T10:57:43;14.60;99.90
21149;DHT22;10732;51.472;6.466;2023-11-19T11:00:13;14.90;99.90
21149;DHT22;10732;51.472;6.466;2023-11-19T11:02:45;14.90;99.90
21149;DHT22;10732;51.472;6.466;2023-11-19T11:05:16;14.90;99.90
21149;DHT22;10732;51.472;6.466;2023-11-19T11:07:44;15.30;99.90
21149;DHT22;10732;51.472;6.466;2023-11-19T11:10:11;15.80;99.90
21149;DHT22;10732;51.472;6.466;2023-11-19T11:12:38;16.30;99.90
21149;DHT22;10732;51.472;6.466;2023-11-19T11:15:07;16.70;99.90
21149;DHT22;10732;51.472;6.466;2023-11-19T11:17:34;16.80;99.90
21149;DHT22;10732;51.472;6.466;2023-11-19T11:19:59;16.70;99.90
21149;DHT22;10732;51.472;6.466;2023-11-19T11:22:27;16.20;99.90
21149;DHT22;10732;51.472;6.466;2023-11-19T11:27:57;15.60;99.90
21149;DHT22;10732;51.472;6.466;2023-11-19T11:30:55;15.40;99.90
21149;DHT22;10732;51.472;6.466;2023-11-19T11:33:59;15.20;99.90
21149;DHT22;10732;51.472;6.466;2023-11-19T11:36:29;15.60;99.90
21149;DHT22;10732;51.472;6.466;2023-11-19T11:38:58;15.90;99.90
21149;DHT22;10732;51.472;6.466;2023-11-19T11:41:25;15.80;99.90
21149;DHT22;10732;51.472;6.466;2023-11-19T11:43:54;15.90;99.90
21149;DHT22;10732;51.472;6.466;2023-11-19T11:54:31;15.30;99.90
21149;DHT22;10732;51.472;6.466;2023-11-19T11:57:10;15.20;99.90
21149;DHT22;10732;51.472;6.466;2023-11-19T12:02:12;14.60;99.90
21149;DHT22;10732;51.472;6.466;2023-11-19T12:04:39;14.70;99.90
21149;DHT22;10732;51.472;6.466;2023-11-19T12:07:12;14.60;99.90
21149;DHT22;10732;51.472;6.466;2023-11-19T12:09:40;14.50;99.90
21149;DHT22;10732;51.472;6.466;2023-11-19T12:12:23;14.70;99.90
21149;DHT22;10732;51.472;6.466;2023-11-19T12:20:08;14.50;99.90
21149;DHT22;10732;51.472;6.466;2023-11-19T12:22:41;14.40;99.90
21149;DHT22;10732;51.472;6.466;2023-11-19T12:25:09;14.10;99.90
21149;DHT22;10732;51.472;6.466;2023-11-19T12:27:35;13.70;99.90
21149;DHT22;10732;51.472;6.466;2023-11-19T12:30:05;13.40;99.90
21149;DHT22;10732;51.472;6.466;2023-11-19T12:32:45;13.40;99.90
21149;DHT22;10732;51.472;6.466;2023-11-19T12:35:12;13.40;99.90
21149;DHT22;10732;51.472;6.466;2023-11-19T12:37:41;13.40;99.90
21149;DHT22;10732;51.472;6.466;2023-11-19T12:40:15;13.40;99.90
21149;DHT22;10732;51.472;6.466;2023-11-19T12:42:43;13.50;99.90
21149;DHT22;10732;51.472;6.466;2023-11-19T12:45:08;13.70;99.90
21149;DHT22;10732;51.472;6.466;2023-11-19T12:47:36;13.60;99.90
21149;DHT22;10732;51.472;6.466;2023-11-19T12:50:02;13.50;99.90
21149;DHT22;10732;51.472;6.466;2023-11-19T12:52:29;13.30;99.90
21149;DHT22;10732;51.472;6.466;2023-11-19T12:54:55;13.40;99.90
21149;DHT22;10732;51.472;6.466;2023-11-19T12:57:21;13.60;99.90
21149;DHT22;10732;51.472;6.466;2023-11-19T12:59:56;13.90;99.90
21149;DHT22;10732;51.472;6.466;2023-11-19T13:02:48;14.00;99.90
21149;DHT22;10732;51.472;6.466;2023-11-19T13:07:48;13.80;99.90
21149;DHT22;10732;51.472;6.466;2023-11-19T13:10:14;13.60;99.90
21149;DHT22;10732;51.472;6.466;2023-11-19T13:12:41;13.60;99.90
21149;DHT22;10732;51.472;6.466;2023-11-19T13:15:07;13.60;99.90
21149;DHT22;10732;51.472;6.466;2023-11-19T13:17:47;13.60;99.90
21149;DHT22;10732;51.472;6.466;2023-11-19T13:20:13;13.70;99.90
21149;DHT22;10732;51.472;6.466;2023-11-19T13:22:39;13.60;99.90
21149;DHT22;10732;51.472;6.466;2023-11-19T13:25:19;13.60;99.90
21149;DHT22;10732;51.472;6.466;2023-11-19T13:27:46;13.60;99.90
21149;DHT22;10732;51.472;6.466;2023-11-19T13:30:12;13.60;99.90
21149;DHT22;10732;51.472;6.466;2023-11-19T13:32:37;13.50;99.90
21149;DHT22;10732;51.472;6.466;2023-11-19T13:35:05;13.30;99.90
21149;DHT22;10732;51.472;6.466;2023-11-19T13:37:30;13.20;99.90
21149;DHT22;10732;51.472;6.466;2023-11-19T13:39:56;13.10;99.90
21149;DHT22;10732;51.472;6.466;2023-11-19T13:42:21;13.00;99.90
21149;DHT22;10732;51.472;6.466;2023-11-19T13:44:47;12.90;99.90
21149;DHT22;10732;51.472;6.466;2023-11-19T13:47:12;12.80;99.90
21149;DHT22;10732;51.472;6.466;2023-11-19T13:49:39;12.80;99.90
21149;DHT22;10732;51.472;6.466;2023-11-19T13:52:07;12.70;99.90
21149;DHT22;10732;51.472;6.466;2023-11-19T13:54:33;12.70;99.90
21149;DHT22;10732;51.472;6.466;2023-11-19T13:56:59;12.80;99.90
21149;DHT22;10732;51.472;6.466;2023-11-19T13:59:26;12.80;99.90
21149;DHT22;10732;51.472;6.466;2023-11-19T14:01:52;12.70;99.90
21149;DHT22;10732;51.472;6.466;2023-11-19T14:04:18;12.60;99.90
21149;DHT22;10732;51.472;6.466;2023-11-19T14:06:45;12.50;99.90
21149;DHT22;10732;51.472;6.466;2023-11-19T14:09:10;12.40;99.90
21149;DHT22;10732;51.472;6.466;2023-11-19T14:11:36;12.40;99.90
21149;DHT22;10732;51.472;6.466;2023-11-19T14:14:02;12.50;99.90
21149;DHT22;10732;51.472;6.466;2023-11-19T14:16:27;12.60;99.90
21149;DHT22;10732;51.472;6.466;2023-11-19T14:18:53;12.60;99.90
21149;DHT22;10732;51.472;6.466;2023-11-19T14:21:20;12.50;99.90
21149;DHT22;10732;51.472;6.466;2023-11-19T14:23:46;12.50;99.90
21149;DHT22;10732;51.472;6.466;2023-11-19T14:26:11;12.50;99.90
21149;DHT22;10732;51.472;6.466;2023-11-19T14:28:37;12.50;99.90
21149;DHT22;10732;51.472;6.466;2023-11-19T14:31:10;12.40;99.90
21149;DHT22;10732;51.472;6.466;2023-11-19T14:33:35;12.40;99.90
21149;DHT22;10732;51.472;6.466;2023-11-19T14:36:03;12.40;99.90
21149;DHT22;10732;51.472;6.466;2023-11-19T14:38:29;12.20;99.90
21149;DHT22;10732;51.472;6.466;2023-11-19T14:40:55;12.10;99.90
21149;DHT22;10732;51.472;6.466;2023-11-19T14:43:20;12.00;99.90
21149;DHT22;10732;51.472;6.466;2023-11-19T14:45:46;12.00;99.90
21149;DHT22;10732;51.472;6.466;2023-11-19T14:48:11;12.10;99.90
21149;DHT22;10732;51.472;6.466;2023-11-19T14:50:37;12.00;99.90
21149;DHT22;10732;51.472;6.466;2023-11-19T14:53:02;11.90;99.90
21149;DHT22;10732;51.472;6.466;2023-11-19T14:55:28;11.80;99.90
21149;DHT22;10732;51.472;6.466;2023-11-19T14:57:54;11.80;99.90
21149;DHT22;10732;51.472;6.466;2023-11-19T15:00:20;11.80;99.90
21149;DHT22;10732;51.472;6.466;2023-11-19T15:02:46;11.80;99.90
21149;DHT22;10732;51.472;6.466;2023-11-19T15:05:11;11.80;99.90
21149;DHT22;10732;51.472;6.466;2023-11-19T15:07:38;11.80;99.90
21149;DHT22;10732;51.472;6.466;2023-11-19T15:10:05;11.70;99.90
21149;DHT22;10732;51.472;6.466;2023-11-19T15:12:36;11.70;99.90
21149;DHT22;10732;51.472;6.466;2023-11-19T15:15:06;11.60;99.90
21149;DHT22;10732;51.472;6.466;2023-11-19T15:17:31;11.60;99.90
21149;DHT22;10732;51.472;6.466;2023-11-19T15:19:57;11.50;99.90
21149;DHT22;10732;51.472;6.466;2023-11-19T15:22:22;11.50;99.90
21149;DHT22;10732;51.472;6.466;2023-11-19T15:24:48;11.40;99.90
21149;DHT22;10732;51.472;6.466;2023-11-19T15:27:13;11.40;99.90
21149;DHT22;10732;51.472;6.466;2023-11-19T15:29:39;11.40;99.90
21149;DHT22;10732;51.472;6.466;2023-11-19T15:32:05;11.30;99.90
21149;DHT22;10732;51.472;6.466;2023-11-19T15:34:32;11.30;99.90
21149;DHT22;10732;51.472;6.466;2023-11-19T15:36:59;11.30;99.90
21149;DHT22;10732;51.472;6.466;2023-11-19T15:39:26;11.30;99.90
21149;DHT22;10732;51.472;6.466;2023-11-19T15:41:52;11.20;99.90
21149;DHT22;10732;51.472;6.466;2023-11-19T15:44:18;11.30;99.90
21149;DHT22;10732;51.472;6.466;2023-11-19T15:46:44;11.30;99.90
21149;DHT22;10732;51.472;6.466;2023-11-19T15:49:09;11.20;99.90
21149;DHT22;10732;51.472;6.466;2023-11-19T15:51:35;11.20;99.90
21149;DHT22;10732;51.472;6.466;2023-11-19T15:54:01;11.20;99.90